Time;durP1;ratioP1;P1;durP2;ratioP2;P2;SDS_P1;SDS_P2;PMS_P1;PMS_P2;Temp;Humidity;BMP_temperature;BMP_pressure;BME280_temperature;BME280_humidity;BME280_pressure;Samples;Min_cycle;Max_cycle;Signal;HPM_P1;HPM_P2
2022/02/20 00:02:08;;;;;;;462.27;149.57;;;;;;;0.50;100.00;98855.19;5023240;28;20038;-60
2022/02/20 00:04:34;;;;;;;465.50;150.17;;;;;;;0.53;100.00;98862.81;5023948;28;20280;-59
2022/02/20 00:06:59;;;;;;;464.10;148.60;;;;;;;0.71;100.00;98849.00;5026396;28;20037;-59
2022/02/20 00:09:25;;;;;;;460.80;148.27;;;;;;;0.66;100.00;98847.16;5025005;28;20033;-61
2022/02/20 00:11:50;;;;;;;463.97;149.27;;;;;;;0.55;100.00;98834.31;5023299;28;20124;-60
2022/02/20 00:14:16;;;;;;;464.83;147.30;;;;;;;0.61;100.00;98836.09;5025744;28;20046;-60
2022/02/20 00:16:41;;;;;;;465.33;146.00;;;;;;;0.45;100.00;98838.28;5026818;28;20223;-60
2022/02/20 00:19:06;;;;;;;464.27;145.30;;;;;;;0.38;100.00;98833.88;5026155;28;20037;-60
2022/02/20 00:21:32;;;;;;;461.80;147.33;;;;;;;0.42;100.00;98832.31;5021695;28;20776;-59
2022/02/20 00:23:57;;;;;;;463.27;146.80;;;;;;;0.35;100.00;98820.34;5022539;28;20159;-62
2022/02/20 00:26:23;;;;;;;458.73;141.67;;;;;;;0.37;100.00;98822.13;5025387;28;20471;-60
2022/02/20 00:28:48;;;;;;;458.47;142.47;;;;;;;0.33;100.00;98830.44;5024834;28;20136;-61
2022/02/20 00:31:14;;;;;;;459.63;141.27;;;;;;;0.29;100.00;98815.19;5021613;28;20041;-60
2022/02/20 00:33:39;;;;;;;456.20;139.37;;;;;;;0.31;100.00;98813.53;5022529;28;20053;-59
2022/02/20 00:36:04;;;;;;;457.53;138.37;;;;;;;0.37;100.00;98822.13;5022987;28;20037;-59
2022/02/20 00:38:31;;;;;;;457.33;139.27;;;;;;;0.37;100.00;98812.03;5023266;28;20042;-59
2022/02/20 00:40:56;;;;;;;459.10;142.53;;;;;;;0.41;100.00;98802.88;5018652;28;20129;-58
2022/02/20 00:43:22;;;;;;;460.37;140.77;;;;;;;0.44;100.00;98805.44;5020406;28;20356;-59
2022/02/20 00:45:47;;;;;;;457.57;140.27;;;;;;;0.55;100.00;98809.09;5023747;28;20608;-59
2022/02/20 00:48:17;;;;;;;457.80;139.67;;;;;;;0.44;100.00;98805.44;5020158;28;20092;-60
2022/02/20 00:50:43;;;;;;;457.17;138.37;;;;;;;0.42;100.00;98802.88;5019665;28;20361;-59
2022/02/20 00:53:08;;;;;;;455.43;137.47;;;;;;;0.28;100.00;98806.75;5022353;28;20268;-58
2022/02/20 00:55:34;;;;;;;458.57;135.67;;;;;;;0.16;100.00;98801.44;5021693;28;20547;-57
2022/02/20 00:57:59;;;;;;;459.10;138.53;;;;;;;0.11;100.00;98802.13;5023112;28;20053;-60
2022/02/20 01:00:24;;;;;;;455.33;137.67;;;;;;;0.01;100.00;98788.44;5020246;28;20716;-61
2022/02/20 01:02:50;;;;;;;455.47;136.60;;;;;;;-0.05;100.00;98781.59;5023231;28;20510;-61
2022/02/20 01:05:16;;;;;;;457.53;136.70;;;;;;;-0.07;100.00;98783.22;5024156;28;20041;-59
2022/02/20 01:07:41;;;;;;;457.03;135.30;;;;;;;-0.16;100.00;98777.06;5023336;28;20083;-60
2022/02/20 01:10:10;;;;;;;459.10;137.23;;;;;;;-0.15;100.00;98784.69;5020401;28;20044;-60
2022/02/20 01:12:35;;;;;;;458.00;136.90;;;;;;;-0.15;100.00;98783.81;5022557;28;20117;-61
2022/02/20 01:15:01;;;;;;;455.57;134.13;;;;;;;-0.24;100.00;98788.63;5024208;28;20360;-61
2022/02/20 01:17:26;;;;;;;461.07;135.47;;;;;;;-0.25;100.00;98782.72;5020963;28;20496;-60
2022/02/20 01:19:53;;;;;;;455.43;136.83;;;;;;;-0.32;100.00;98778.34;5019389;28;20038;-59
2022/02/20 01:22:22;;;;;;;454.33;134.13;;;;;;;-0.35;100.00;98777.44;5024876;28;20044;-58
2022/02/20 01:24:47;;;;;;;456.37;136.47;;;;;;;-0.46;100.00;98764.53;5024652;28;20267;-60
2022/02/20 01:27:13;;;;;;;455.87;135.37;;;;;;;-0.43;100.00;98771.34;5020787;28;20491;-60
2022/02/20 01:29:38;;;;;;;452.70;133.40;;;;;;;-0.49;100.00;98775.41;5019865;28;20435;-60
2022/02/20 01:32:05;;;;;;;453.50;132.33;;;;;;;-0.50;100.00;98770.31;5021716;28;20069;-60
2022/02/20 01:34:31;;;;;;;453.40;134.00;;;;;;;-0.23;100.00;98772.69;5025869;28;20061;-60
2022/02/20 01:36:56;;;;;;;451.67;129.67;;;;;;;-0.20;100.00;98771.13;5024799;28;20269;-60
2022/02/20 01:39:21;;;;;;;454.77;131.97;;;;;;;-0.24;100.00;98768.47;5023206;28;20033;-60
2022/02/20 01:41:53;;;;;;;452.67;129.90;;;;;;;-0.11;100.00;98766.31;5023948;28;20705;-59
2022/02/20 01:44:19;;;;;;;452.93;130.87;;;;;;;-0.19;100.00;98767.78;5021849;28;20064;-59
2022/02/20 01:46:49;;;;;;;453.33;131.63;;;;;;;-0.29;100.00;98764.97;5020345;28;20387;-59
2022/02/20 01:49:17;;;;;;;451.43;127.73;;;;;;;-0.24;100.00;98766.81;5022104;28;20272;-56
2022/02/20 01:51:43;;;;;;;450.70;130.33;;;;;;;-0.27;100.00;98758.31;5023515;28;20272;-59
2022/02/20 01:54:08;;;;;;;449.83;128.90;;;;;;;-0.37;100.00;98752.19;5020000;28;20275;-60
2022/02/20 01:56:35;;;;;;;450.47;130.33;;;;;;;-0.43;100.00;98763.78;5019848;28;20033;-59
2022/02/20 01:59:01;;;;;;;454.67;129.07;;;;;;;-0.31;100.00;98759.91;5022728;28;20049;-58
2022/02/20 02:01:27;;;;;;;447.93;124.37;;;;;;;-0.30;100.00;98761.63;5022586;28;20363;-61
2022/02/20 02:03:52;;;;;;;448.67;125.97;;;;;;;-0.31;100.00;98767.47;5020885;28;20272;-61
2022/02/20 02:06:18;;;;;;;448.13;126.87;;;;;;;-0.28;100.00;98764.16;5019934;28;20402;-59
2022/02/20 02:08:43;;;;;;;450.97;129.80;;;;;;;-0.22;100.00;98765.19;5022052;28;20048;-59
2022/02/20 02:11:09;;;;;;;449.37;128.10;;;;;;;-0.22;100.00;98757.63;5022547;28;20044;-61
2022/02/20 02:13:35;;;;;;;448.20;127.43;;;;;;;-0.33;100.00;98753.13;5018702;28;20033;-60
2022/02/20 02:16:00;;;;;;;449.97;124.67;;;;;;;-0.41;100.00;98750.41;5020074;28;20111;-60
2022/02/20 02:18:26;;;;;;;450.30;126.00;;;;;;;-0.48;100.00;98758.63;5018724;28;20291;-60
2022/02/20 02:20:51;;;;;;;448.13;124.90;;;;;;;-0.62;100.00;98754.88;5021710;28;20033;-60
2022/02/20 02:23:17;;;;;;;448.47;124.93;;;;;;;-0.65;100.00;98752.28;5019484;28;20030;-60
2022/02/20 02:25:43;;;;;;;448.30;125.63;;;;;;;-0.69;100.00;98746.31;5019380;28;20442;-59
2022/02/20 02:28:08;;;;;;;446.33;125.67;;;;;;;-0.74;100.00;98754.56;5023478;28;20132;-60
2022/02/20 02:30:34;;;;;;;448.43;126.43;;;;;;;-0.69;100.00;98748.00;5022114;28;20120;-60
2022/02/20 02:32:59;;;;;;;449.97;127.17;;;;;;;-0.37;100.00;98752.19;5020480;28;20521;-61
2022/02/20 02:35:25;;;;;;;446.93;128.10;;;;;;;-0.16;100.00;98750.22;5019591;28;20091;-62
2022/02/20 02:37:52;;;;;;;447.03;124.43;;;;;;;-0.12;100.00;98744.44;5021912;28;20045;-58
2022/02/20 02:40:18;;;;;;;451.50;126.80;;;;;;;-0.16;100.00;98744.31;5022656;28;20026;-59
2022/02/20 02:42:43;;;;;;;448.13;127.00;;;;;;;-0.07;100.00;98742.03;5020810;28;20303;-61
2022/02/20 02:45:09;;;;;;;450.20;127.47;;;;;;;0.06;100.00;98733.09;5023725;28;20272;-60
2022/02/20 02:47:34;;;;;;;446.47;126.60;;;;;;;0.03;100.00;98731.38;5026907;28;20045;-57
2022/02/20 02:50:00;;;;;;;450.17;130.07;;;;;;;0.02;100.00;98731.31;5023221;28;20041;-60
2022/02/20 02:52:25;;;;;;;450.87;128.93;;;;;;;-0.08;100.00;98715.97;5021331;28;20045;-57
2022/02/20 02:54:51;;;;;;;450.30;130.50;;;;;;;-0.02;100.00;98731.25;5022389;28;20068;-59
2022/02/20 02:57:16;;;;;;;452.03;132.33;;;;;;;0.21;100.00;98728.44;5023642;28;20049;-59
2022/02/20 02:59:42;;;;;;;448.20;128.10;;;;;;;0.17;100.00;98721.63;5022605;28;20098;-60
2022/02/20 03:02:08;;;;;;;452.63;131.53;;;;;;;0.21;100.00;98723.41;5021245;28;20415;-62
2022/02/20 03:04:34;;;;;;;451.43;129.53;;;;;;;0.24;100.00;98724.31;5022502;28;20036;-59
2022/02/20 03:07:00;;;;;;;450.63;128.60;;;;;;;0.29;100.00;98726.94;5025547;28;20284;-60
2022/02/20 03:09:26;;;;;;;449.73;130.77;;;;;;;0.20;100.00;98732.63;5020961;28;20049;-60
2022/02/20 03:11:52;;;;;;;449.27;128.37;;;;;;;0.16;100.00;98730.00;5019993;28;20099;-58
2022/02/20 03:14:18;;;;;;;458.67;131.50;;;;;;;0.15;100.00;98736.72;5021494;28;20260;-60
2022/02/20 03:16:43;;;;;;;452.90;130.63;;;;;;;0.15;100.00;98748.44;5022315;28;20280;-59
2022/02/20 03:19:08;;;;;;;453.37;131.63;;;;;;;-0.06;100.00;98744.59;5022498;28;20056;-58
2022/02/20 03:21:34;;;;;;;451.90;130.73;;;;;;;-0.12;100.00;98752.00;5019599;28;20111;-60
2022/02/20 03:24:00;;;;;;;451.77;130.67;;;;;;;-0.04;100.00;98755.56;5025574;28;20037;-58
2022/02/20 03:26:25;;;;;;;450.20;130.83;;;;;;;-0.05;100.00;98742.94;5027197;28;20048;-57
2022/02/20 03:28:51;;;;;;;450.07;129.87;;;;;;;-0.24;100.00;98738.25;5026066;28;21008;-60
2022/02/20 03:31:17;;;;;;;447.93;127.60;;;;;;;-0.37;100.00;98731.19;5022487;28;20071;-58
2022/02/20 03:33:43;;;;;;;449.03;127.70;;;;;;;-0.46;100.00;98711.66;5012384;28;20053;-59
2022/02/20 03:36:09;;;;;;;450.23;127.27;;;;;;;-0.48;100.00;98723.38;5011042;28;20327;-59
2022/02/20 03:38:35;;;;;;;449.43;127.13;;;;;;;-0.56;100.00;98718.16;5004003;28;20041;-59
2022/02/20 03:41:01;;;;;;;453.70;128.23;;;;;;;-0.66;100.00;98713.69;5009071;28;20038;-58
2022/02/20 03:43:26;;;;;;;448.57;125.27;;;;;;;-0.63;100.00;98713.75;5006447;28;20272;-57
2022/02/20 03:45:51;;;;;;;449.63;126.70;;;;;;;-0.54;100.00;98715.66;5012255;28;20799;-57
2022/02/20 03:48:17;;;;;;;449.50;127.53;;;;;;;-0.49;100.00;98709.06;5007700;28;20500;-60
2022/02/20 03:50:42;;;;;;;444.33;123.97;;;;;;;-0.59;100.00;98695.38;5003546;28;20045;-60
2022/02/20 03:53:08;;;;;;;446.17;126.20;;;;;;;-0.75;100.00;98694.94;5007656;28;20113;-60
2022/02/20 03:55:33;;;;;;;448.57;124.70;;;;;;;-0.69;100.00;98706.06;5005326;28;20700;-58
2022/02/20 03:57:58;;;;;;;443.70;123.27;;;;;;;-0.76;100.00;98698.28;5004787;28;20045;-56
2022/02/20 04:00:26;;;;;;;444.13;121.77;;;;;;;-0.76;100.00;98703.31;5002769;28;20149;-58
2022/02/20 04:02:51;;;;;;;445.13;122.40;;;;;;;-0.72;100.00;98698.41;5009290;28;20038;-59
2022/02/20 04:05:19;;;;;;;445.70;122.23;;;;;;;-0.69;100.00;98700.16;5007116;28;20593;-60
2022/02/20 04:07:44;;;;;;;444.63;122.53;;;;;;;-0.77;100.00;98706.66;5005353;28;20149;-59
2022/02/20 04:10:11;;;;;;;444.93;122.30;;;;;;;-0.83;100.00;98691.38;5002473;28;21155;-58
2022/02/20 04:12:37;;;;;;;446.90;122.20;;;;;;;-0.88;100.00;98695.44;5007683;28;20125;-60
2022/02/20 04:15:07;;;;;;;445.07;122.43;;;;;;;-0.88;100.00;98686.22;5011575;28;20269;-59
2022/02/20 04:17:49;;;;;;;444.80;120.37;;;;;;;-0.94;100.00;98681.06;5010433;28;20273;-58
2022/02/20 04:20:16;;;;;;;444.27;120.27;;;;;;;-0.98;100.00;98676.75;5011662;28;20334;-60
2022/02/20 04:22:44;;;;;;;443.03;121.03;;;;;;;-0.86;100.00;98693.81;5006180;28;20825;-61
2022/02/20 04:25:10;;;;;;;441.03;119.23;;;;;;;-0.68;100.00;98686.78;5001928;28;20738;-60
2022/02/20 04:27:36;;;;;;;441.67;120.23;;;;;;;-0.61;100.00;98691.16;5005930;28;20261;-60
2022/02/20 04:30:13;;;;;;;446.57;120.73;;;;;;;-0.59;100.00;98704.59;5004732;28;20281;-60
2022/02/20 04:32:39;;;;;;;444.03;121.57;;;;;;;-0.57;100.00;98703.84;5009200;28;20057;-61
2022/02/20 04:35:05;;;;;;;445.13;121.90;;;;;;;-0.56;100.00;98695.50;5023585;28;20616;-60
2022/02/20 04:37:30;;;;;;;446.03;121.63;;;;;;;-0.60;100.00;98687.81;5022983;28;20052;-62
2022/02/20 04:39:56;;;;;;;444.40;122.40;;;;;;;-0.64;100.00;98689.41;5025483;28;20041;-60
2022/02/20 04:42:21;;;;;;;444.60;122.10;;;;;;;-0.62;100.00;98689.44;5027965;28;20556;-60
2022/02/20 04:44:46;;;;;;;443.10;120.97;;;;;;;-0.51;100.00;98683.84;5024010;28;20053;-60
2022/02/20 04:47:12;;;;;;;446.33;122.33;;;;;;;-0.46;100.00;98681.44;5026868;28;20041;-60
2022/02/20 04:49:37;;;;;;;444.57;122.10;;;;;;;-0.39;100.00;98674.91;5024709;28;20377;-61
2022/02/20 04:52:03;;;;;;;442.13;120.10;;;;;;;-0.30;100.00;98677.66;5028165;28;20105;-61
2022/02/20 04:54:29;;;;;;;446.40;123.63;;;;;;;-0.27;100.00;98681.09;5022722;28;20137;-60
2022/02/20 04:56:55;;;;;;;448.03;126.97;;;;;;;-0.14;100.00;98672.16;5023016;28;20379;-60
2022/02/20 04:59:21;;;;;;;445.53;124.23;;;;;;;-0.18;100.00;98680.47;5025512;28;20153;-60
2022/02/20 05:01:46;;;;;;;446.67;124.73;;;;;;;-0.20;100.00;98667.84;5026780;28;20045;-58
2022/02/20 05:04:12;;;;;;;445.23;125.67;;;;;;;-0.23;100.00;98674.47;5023839;28;20824;-57
2022/02/20 05:06:37;;;;;;;447.10;124.23;;;;;;;-0.01;100.00;98691.81;5024374;28;20196;-60
2022/02/20 05:09:03;;;;;;;444.87;123.63;;;;;;;0.23;100.00;98682.28;5027251;28;20037;-58
2022/02/20 05:11:28;;;;;;;444.77;124.27;;;;;;;0.37;100.00;98685.97;5026821;28;20502;-59
2022/02/20 05:13:55;;;;;;;446.43;126.37;;;;;;;0.62;100.00;98699.94;5025015;28;20052;-60
2022/02/20 05:16:22;;;;;;;446.90;125.30;;;;;;;0.61;100.00;98680.56;5026331;28;20041;-60
2022/02/20 05:18:47;;;;;;;446.43;127.97;;;;;;;0.66;100.00;98681.53;5027660;28;20256;-62
2022/02/20 05:21:13;;;;;;;448.57;128.23;;;;;;;0.75;100.00;98684.25;5025584;28;20283;-60
2022/02/20 05:23:38;;;;;;;451.10;132.27;;;;;;;0.73;100.00;98690.06;5021017;28;20991;-63
2022/02/20 05:26:04;;;;;;;450.57;132.70;;;;;;;0.66;100.00;98686.56;5020992;28;20057;-61
2022/02/20 05:28:29;;;;;;;452.80;133.63;;;;;;;0.79;100.00;98691.06;5009779;28;20038;-59
2022/02/20 05:30:55;;;;;;;453.80;134.43;;;;;;;0.63;100.00;98681.47;5025439;28;20052;-61
2022/02/20 05:33:20;;;;;;;451.87;135.53;;;;;;;0.48;100.00;98683.66;5019877;28;20049;-61
2022/02/20 05:35:46;;;;;;;452.70;136.60;;;;;;;0.38;100.00;98689.34;5023373;28;20041;-60
2022/02/20 05:38:11;;;;;;;453.20;136.37;;;;;;;0.50;100.00;98692.13;5024792;28;20660;-61
2022/02/20 05:40:37;;;;;;;452.27;135.10;;;;;;;0.39;100.00;98686.84;5022042;28;20476;-60
2022/02/20 05:43:03;;;;;;;452.53;134.43;;;;;;;0.37;100.00;98685.97;5018450;28;20029;-60
2022/02/20 05:45:29;;;;;;;451.20;135.43;;;;;;;0.39;100.00;98698.59;5023525;28;20284;-60
2022/02/20 05:47:55;;;;;;;451.50;135.33;;;;;;;0.52;100.00;98707.25;5024705;28;20786;-61
2022/02/20 05:50:20;;;;;;;452.37;136.47;;;;;;;0.46;100.00;98705.47;5022801;28;20057;-61
2022/02/20 05:52:45;;;;;;;453.00;138.17;;;;;;;0.54;100.00;98713.22;5023257;28;20037;-60
2022/02/20 05:55:11;;;;;;;452.50;137.20;;;;;;;0.49;100.00;98708.06;5021030;28;20088;-63
2022/02/20 05:57:47;;;;;;;454.70;136.50;;;;;;;0.50;100.00;98717.34;5023989;28;20052;-60
2022/02/20 06:00:16;;;;;;;450.53;135.27;;;;;;;0.49;100.00;98722.34;5021651;28;20038;-60
2022/02/20 06:02:41;;;;;;;452.00;136.73;;;;;;;0.65;100.00;98716.81;5023800;28;20292;-57
2022/02/20 06:05:08;;;;;;;449.53;136.73;;;;;;;0.85;100.00;98718.06;5025187;28;20276;-59
2022/02/20 06:07:33;;;;;;;450.73;138.47;;;;;;;0.91;100.00;98715.69;5023514;28;20042;-59
2022/02/20 06:10:00;;;;;;;452.53;139.63;;;;;;;0.81;100.00;98728.91;5017783;28;20336;-59
2022/02/20 06:12:25;;;;;;;451.83;138.73;;;;;;;1.11;100.00;98736.25;5020444;28;20037;-60
2022/02/20 06:14:51;;;;;;;451.10;137.37;;;;;;;1.11;100.00;98731.22;5024524;28;20677;-59
2022/02/20 06:17:16;;;;;;;450.93;135.43;;;;;;;1.27;100.00;98740.81;5025202;28;20040;-60
2022/02/20 06:19:42;;;;;;;453.93;140.10;;;;;;;1.36;100.00;98741.81;5021202;28;20072;-60
2022/02/20 06:22:07;;;;;;;456.80;141.57;;;;;;;1.42;100.00;98731.00;5020942;28;20376;-59
2022/02/20 06:24:32;;;;;;;456.93;143.27;;;;;;;1.50;100.00;98747.13;5023577;28;20068;-59
2022/02/20 06:26:58;;;;;;;456.37;143.17;;;;;;;1.62;99.95;98754.94;5023109;28;20507;-59
2022/02/20 06:29:25;;;;;;;455.03;145.03;;;;;;;1.70;100.00;98755.06;5022889;28;20370;-57
2022/02/20 06:31:50;;;;;;;458.83;148.43;;;;;;;1.74;100.00;98755.16;5021881;28;20268;-59
2022/02/20 06:34:15;;;;;;;458.70;147.17;;;;;;;1.60;100.00;98751.53;5023875;28;20647;-57
2022/02/20 06:36:41;;;;;;;461.63;153.10;;;;;;;1.52;100.00;98755.59;5024132;28;20471;-59
2022/02/20 06:39:07;;;;;;;459.53;150.47;;;;;;;1.64;100.00;98754.97;5022830;28;20103;-60
2022/02/20 06:41:32;;;;;;;460.40;152.07;;;;;;;1.71;100.00;98756.78;5023671;28;20570;-60
2022/02/20 06:43:58;;;;;;;461.27;152.20;;;;;;;1.94;99.04;98754.66;5023654;28;20052;-59
2022/02/20 06:46:23;;;;;;;460.30;150.43;;;;;;;2.04;99.24;98759.88;5022783;28;20049;-60
2022/02/20 06:48:48;;;;;;;460.93;154.73;;;;;;;2.21;99.05;98762.69;5019955;28;20053;-57
2022/02/20 06:51:14;;;;;;;464.20;156.17;;;;;;;2.36;97.76;98762.94;5020887;28;20049;-58
2022/02/20 06:53:39;;;;;;;464.50;162.83;;;;;;;2.55;96.95;98756.47;5025970;28;20056;-58
2022/02/20 06:56:05;;;;;;;463.27;162.13;;;;;;;2.91;98.90;98754.47;5023446;28;20107;-59
2022/02/20 06:58:30;;;;;;;465.50;166.20;;;;;;;3.14;97.56;98763.19;5017561;28;20086;-58
2022/02/20 07:00:55;;;;;;;468.10;171.87;;;;;;;3.34;97.66;98758.38;5021388;28;20045;-58
2022/02/20 07:03:21;;;;;;;467.63;173.07;;;;;;;3.60;97.51;98762.06;5020999;28;20499;-60
2022/02/20 07:05:46;;;;;;;469.47;177.57;;;;;;;3.98;97.31;98756.50;5022115;28;20041;-61
2022/02/20 07:08:12;;;;;;;471.33;185.60;;;;;;;4.34;96.83;98766.09;5021527;28;20065;-58
2022/02/20 07:10:37;;;;;;;474.63;191.13;;;;;;;4.68;96.23;98762.97;5012612;28;20129;-59
2022/02/20 07:13:03;;;;;;;479.27;199.40;;;;;;;4.73;97.53;98760.44;5022248;28;20041;-59
2022/02/20 07:15:28;;;;;;;477.60;204.73;;;;;;;4.87;96.74;98764.78;5020505;28;20500;-58
2022/02/20 07:17:54;;;;;;;481.07;214.63;;;;;;;5.03;97.78;98763.16;5019802;28;20136;-59
2022/02/20 07:20:19;;;;;;;482.17;218.57;;;;;;;5.14;97.47;98766.59;5021624;28;20053;-59
2022/02/20 07:22:45;;;;;;;482.73;223.30;;;;;;;5.29;96.66;98763.28;5023330;28;20148;-60
2022/02/20 07:25:12;;;;;;;482.97;227.57;;;;;;;5.56;94.98;98767.63;5020567;28;20056;-59
2022/02/20 07:27:38;;;;;;;484.73;231.20;;;;;;;5.62;94.28;98772.72;5018925;28;20109;-57
2022/02/20 07:30:05;;;;;;;489.00;240.67;;;;;;;5.64;94.66;98761.72;5024068;28;20106;-58
2022/02/20 07:32:30;;;;;;;490.97;247.47;;;;;;;5.60;96.69;98772.69;5023891;28;20050;-59
2022/02/20 07:34:55;;;;;;;492.50;255.10;;;;;;;5.61;97.57;98760.84;5019986;28;20057;-58
2022/02/20 07:37:21;;;;;;;495.40;263.07;;;;;;;5.59;98.36;98760.00;5018976;28;20404;-60
2022/02/20 07:39:47;;;;;;;495.27;263.47;;;;;;;5.60;98.14;98754.91;5022216;28;20116;-59
2022/02/20 07:42:13;;;;;;;498.10;266.83;;;;;;;5.66;98.72;98748.97;5023364;28;20041;-60
2022/02/20 07:44:39;;;;;;;494.80;271.23;;;;;;;5.74;97.63;98765.97;5018927;28;20835;-55
2022/02/20 07:47:04;;;;;;;494.00;271.27;;;;;;;5.77;98.25;98765.13;5020147;28;20049;-56
2022/02/20 07:49:30;;;;;;;495.97;275.67;;;;;;;5.80;97.88;98762.59;5025259;28;20057;-56
2022/02/20 07:51:55;;;;;;;498.20;281.40;;;;;;;5.97;96.73;98758.41;5022608;28;20534;-57
2022/02/20 07:54:20;;;;;;;497.27;279.67;;;;;;;5.90;97.60;98754.16;5018810;28;20049;-56
2022/02/20 07:56:46;;;;;;;497.47;279.13;;;;;;;5.98;99.08;98757.56;5023089;28;20042;-56
2022/02/20 07:59:11;;;;;;;499.20;284.17;;;;;;;6.00;98.34;98745.69;5024762;28;20056;-57
2022/02/20 08:01:36;;;;;;;496.77;285.10;;;;;;;6.03;98.72;98766.03;5022080;28;20061;-56
2022/02/20 08:04:02;;;;;;;498.67;282.57;;;;;;;6.03;99.17;98760.94;5016277;28;20045;-53
2022/02/20 08:06:28;;;;;;;499.17;290.57;;;;;;;6.01;99.12;98760.13;5019540;28;20037;-55
2022/02/20 08:08:53;;;;;;;499.27;287.80;;;;;;;5.95;96.32;98766.03;5022592;28;20391;-56
2022/02/20 08:11:20;;;;;;;499.90;294.83;;;;;;;5.93;96.07;98766.91;5025967;28;20540;-58
2022/02/20 08:13:45;;;;;;;502.53;298.07;;;;;;;5.94;96.57;98771.16;5023150;28;20116;-53
2022/02/20 08:16:11;;;;;;;501.63;296.03;;;;;;;5.96;96.79;98766.88;5019959;28;20132;-57
2022/02/20 08:18:36;;;;;;;500.93;299.17;;;;;;;5.99;98.21;98769.44;5028506;28;20038;-54
2022/02/20 08:21:02;;;;;;;501.30;299.87;;;;;;;6.06;98.40;98766.06;5022770;28;20172;-55
2022/02/20 08:23:28;;;;;;;501.17;300.40;;;;;;;6.11;97.86;98759.25;5022647;28;20052;-55
2022/02/20 08:25:53;;;;;;;501.57;302.93;;;;;;;6.18;96.42;98765.22;5023608;28;20457;-57
2022/02/20 08:28:19;;;;;;;500.30;299.73;;;;;;;6.24;95.77;98755.88;5022684;28;20499;-56
2022/02/20 08:30:44;;;;;;;502.77;303.57;;;;;;;6.40;94.69;98756.75;5024048;28;20451;-53
2022/02/20 08:33:10;;;;;;;503.70;308.57;;;;;;;6.49;93.87;98748.25;5025805;28;20087;-56
2022/02/20 08:35:35;;;;;;;501.40;306.50;;;;;;;6.57;93.04;98754.19;5023802;28;20046;-56
2022/02/20 08:38:04;;;;;;;501.63;307.40;;;;;;;6.67;92.70;98740.56;5025005;28;20053;-56
2022/02/20 08:40:30;;;;;;;504.87;315.70;;;;;;;6.66;92.19;98755.00;5023329;28;20439;-56
2022/02/20 08:42:56;;;;;;;505.73;319.43;;;;;;;6.73;92.25;98740.56;5021482;28;20056;-55
2022/02/20 08:45:22;;;;;;;505.17;321.60;;;;;;;6.74;94.41;98749.91;5024389;28;20144;-57
2022/02/20 08:47:47;;;;;;;505.53;324.80;;;;;;;6.85;96.31;98731.19;5027467;28;20037;-57
2022/02/20 08:50:14;;;;;;;505.07;324.13;;;;;;;6.88;98.23;98743.91;5021725;28;20045;-56
2022/02/20 08:52:40;;;;;;;506.07;330.70;;;;;;;6.96;100.00;98726.03;5021806;28;20049;-55
2022/02/20 08:55:07;;;;;;;507.57;331.40;;;;;;;7.04;100.00;98734.53;5022873;28;20044;-57
2022/02/20 08:57:33;;;;;;;506.37;333.20;;;;;;;7.19;100.00;98725.97;5024567;28;20121;-56
2022/02/20 08:59:58;;;;;;;507.10;340.53;;;;;;;7.37;100.00;98732.69;5022386;28;20586;-56
2022/02/20 09:02:25;;;;;;;508.33;342.10;;;;;;;7.51;99.74;98724.09;5018667;28;20043;-56
2022/02/20 09:04:50;;;;;;;509.80;346.67;;;;;;;7.58;97.97;98709.63;5024612;28;20047;-57
2022/02/20 09:07:16;;;;;;;511.07;351.13;;;;;;;7.78;97.58;98692.50;5024097;28;20451;-56
2022/02/20 09:09:41;;;;;;;512.20;360.60;;;;;;;8.03;97.40;98688.88;5022118;28;20469;-55
2022/02/20 09:12:07;;;;;;;512.27;364.03;;;;;;;8.31;93.07;98678.47;5021603;28;20053;-57
2022/02/20 09:14:33;;;;;;;514.03;374.37;;;;;;;8.61;92.77;98673.91;5026142;28;20129;-57
2022/02/20 09:17:02;;;;;;;515.87;378.70;;;;;;;8.56;87.19;98690.16;5028126;28;20145;-57
2022/02/20 09:19:28;;;;;;;515.93;381.87;;;;;;;8.68;87.80;98685.78;5023130;28;20034;-57
2022/02/20 09:21:54;;;;;;;518.07;389.43;;;;;;;8.81;87.05;98693.31;5022862;28;20048;-58
2022/02/20 09:24:20;;;;;;;521.70;395.50;;;;;;;8.79;84.73;98700.13;5023295;28;20391;-57
2022/02/20 09:26:46;;;;;;;518.10;396.17;;;;;;;8.78;83.28;98695.91;5023871;28;20049;-54
2022/02/20 09:29:12;;;;;;;521.50;408.50;;;;;;;8.72;80.09;98707.03;5021003;28;20037;-58
2022/02/20 09:31:38;;;;;;;518.97;405.97;;;;;;;8.64;82.40;98719.03;5023860;28;20496;-58
2022/02/20 09:34:03;;;;;;;520.90;414.00;;;;;;;8.74;82.75;98714.69;5008381;28;20053;-57
2022/02/20 09:36:29;;;;;;;524.07;416.17;;;;;;;8.86;81.70;98710.28;5004359;28;20130;-57
2022/02/20 09:38:55;;;;;;;522.67;423.97;;;;;;;9.04;80.48;98715.19;5004557;28;20041;-57
2022/02/20 09:41:25;;;;;;;523.27;416.07;;;;;;;9.12;78.83;98708.25;5001491;28;20045;-58
2022/02/20 09:43:54;;;;;;;523.77;430.40;;;;;;;9.24;77.69;98721.78;5006274;28;20208;-59
2022/02/20 09:46:20;;;;;;;526.03;435.37;;;;;;;9.30;74.76;98719.97;5004852;28;20050;-57
2022/02/20 09:48:46;;;;;;;525.10;436.40;;;;;;;9.18;73.53;98718.44;4999799;28;20137;-56
2022/02/20 09:51:12;;;;;;;527.03;438.20;;;;;;;9.00;70.96;98710.97;5004080;28;20041;-58
2022/02/20 09:53:37;;;;;;;527.03;435.87;;;;;;;9.04;72.05;98715.19;5002270;28;20033;-57
2022/02/20 09:56:03;;;;;;;523.53;423.33;;;;;;;8.98;67.75;98720.38;5001345;28;20026;-58
2022/02/20 09:58:29;;;;;;;522.53;416.63;;;;;;;8.90;73.45;98737.50;5002072;28;20044;-57
2022/02/20 10:01:04;;;;;;;522.33;417.50;;;;;;;8.99;71.32;98714.41;5001007;28;20034;-56
2022/02/20 10:03:31;;;;;;;;;;;;;;;9.21;65.21;98717.53;4999361;28;20081;-57
2022/02/20 10:05:57;;;;;;;515.23;378.10;;;;;;;9.15;63.06;98710.81;5001487;28;19931;-56
2022/02/20 10:08:23;;;;;;;515.80;390.60;;;;;;;9.32;63.39;98714.84;5021125;28;20037;-58
2022/02/20 10:10:48;;;;;;;517.17;395.20;;;;;;;9.46;63.59;98725.78;5027224;28;20038;-58
2022/02/20 10:13:24;;;;;;;518.67;402.67;;;;;;;9.36;63.51;98711.38;5027260;28;20188;-58
2022/02/20 10:15:50;;;;;;;517.30;401.17;;;;;;;9.43;61.31;98715.56;5024169;28;20539;-58
2022/02/20 10:18:18;;;;;;;518.23;408.50;;;;;;;9.46;61.27;98705.31;5024196;28;20087;-58
2022/02/20 10:20:44;;;;;;;520.93;415.63;;;;;;;9.58;61.94;98698.31;5023921;28;20076;-58
2022/02/20 10:23:12;;;;;;;523.03;422.47;;;;;;;9.68;63.48;98695.59;5024568;28;20676;-57
2022/02/20 10:25:38;;;;;;;524.43;420.53;;;;;;;9.77;62.18;98701.44;5007085;28;20052;-57
2022/02/20 10:28:06;;;;;;;524.30;431.37;;;;;;;9.71;62.08;98701.53;5024950;28;20092;-57
2022/02/20 10:30:33;;;;;;;523.93;433.73;;;;;;;9.84;62.17;98704.75;5023508;28;20037;-56
2022/02/20 10:33:20;;;;;;;523.30;427.00;;;;;;;9.74;59.33;98691.25;5022588;28;20048;-57
2022/02/20 10:35:48;;;;;;;521.00;420.93;;;;;;;9.87;58.57;98704.69;5020673;28;20475;-57
2022/02/20 10:38:13;;;;;;;520.87;419.53;;;;;;;9.70;59.54;98697.28;5020489;28;20118;-60
2022/02/20 10:40:43;;;;;;;524.40;417.57;;;;;;;9.87;58.51;98687.63;5022755;28;20128;-59
2022/02/20 10:43:24;;;;;;;523.40;421.13;;;;;;;9.96;57.58;98699.44;5018896;28;20076;-59
2022/02/20 10:45:50;;;;;;;523.93;424.93;;;;;;;10.12;56.18;98682.09;5019574;28;20723;-57
2022/02/20 10:48:18;;;;;;;523.73;427.50;;;;;;;9.96;56.70;98692.63;5024410;28;20744;-60
2022/02/20 10:50:44;;;;;;;522.17;422.50;;;;;;;10.03;58.03;98683.09;5023772;28;20366;-59
2022/02/20 10:53:12;;;;;;;524.07;427.93;;;;;;;10.26;57.99;98685.34;5022386;28;20060;-59
2022/02/20 10:55:47;;;;;;;524.10;432.87;;;;;;;10.17;58.12;98672.66;5024676;28;20372;-59
2022/02/20 10:58:13;;;;;;;522.28;428.75;;;;;;;10.28;57.99;98681.00;5024641;28;20045;-58